Time;durP1;ratioP1;P1;durP2;ratioP2;P2;SDS_P1;SDS_P2;PMS_P1;PMS_P2;Temp;Humidity;BMP_temperature;BMP_pressure;BME280_temperature;BME280_humidity;BME280_pressure;Samples;Min_cycle;Max_cycle;Signal;HPM_P1;HPM_P2
2024/03/06 00:02:13;;;;;;;27.47;15.60;;;;;;;0.30;100.00;101364.72;6018520;23;20175;-71
2024/03/06 00:04:40;;;;;;;32.10;15.93;;;;;;;0.28;100.00;101365.00;6017834;23;20195;-70
2024/03/06 00:07:06;;;;;;;26.50;14.40;;;;;;;0.26;100.00;101369.63;6018503;23;20179;-70
2024/03/06 00:09:33;;;;;;;28.40;15.17;;;;;;;0.23;100.00;101370.09;6018016;23;20186;-70
2024/03/06 00:11:59;;;;;;;27.23;14.83;;;;;;;0.19;100.00;101363.81;6018186;23;20378;-71
2024/03/06 00:14:26;;;;;;;29.83;14.77;;;;;;;0.17;100.00;101368.44;6017974;23;20207;-71
2024/03/06 00:16:55;;;;;;;27.57;14.77;;;;;;;0.14;100.00;101371.53;6009016;23;20199;-71
2024/03/06 00:19:22;;;;;;;30.87;14.73;;;;;;;0.09;100.00;101376.63;6018195;23;20175;-71
2024/03/06 00:21:49;;;;;;;29.47;13.97;;;;;;;0.07;100.00;101376.06;6018197;23;20637;-70
2024/03/06 00:24:16;;;;;;;23.27;14.30;;;;;;;0.03;100.00;101379.38;6018396;23;20184;-71
2024/03/06 00:26:44;;;;;;;27.70;14.03;;;;;;;-0.04;100.00;101381.38;6018287;23;20172;-71
2024/03/06 00:29:10;;;;;;;25.30;14.20;;;;;;;-0.06;100.00;101388.59;6018508;23;20279;-71
2024/03/06 00:31:37;;;;;;;30.17;15.73;;;;;;;-0.09;100.00;101384.66;6018080;23;20168;-71
2024/03/06 00:34:05;;;;;;;27.47;14.83;;;;;;;-0.12;100.00;101394.72;5983872;23;20210;-71
2024/03/06 00:36:32;;;;;;;27.83;15.07;;;;;;;-0.13;100.00;101396.53;6017967;23;20172;-70
2024/03/06 00:38:59;;;;;;;28.97;14.67;;;;;;;-0.13;100.00;101396.53;6018411;23;20178;-71
2024/03/06 00:41:25;;;;;;;26.57;14.00;;;;;;;-0.15;100.00;101401.16;6018042;23;20284;-70
2024/03/06 00:43:51;;;;;;;25.03;14.33;;;;;;;-0.19;100.00;101402.66;6018288;23;20718;-71
2024/03/06 00:46:18;;;;;;;29.27;14.47;;;;;;;-0.21;100.00;101406.50;6018271;23;20501;-70
2024/03/06 00:48:44;;;;;;;27.83;15.40;;;;;;;-0.22;100.00;101408.31;6018275;23;20505;-71
2024/03/06 00:51:12;;;;;;;23.10;14.37;;;;;;;-0.24;100.00;101402.56;6017991;23;20168;-71
2024/03/06 00:53:38;;;;;;;27.07;14.27;;;;;;;-0.26;100.00;101409.00;6018019;23;20202;-71
2024/03/06 00:56:05;;;;;;;28.97;14.50;;;;;;;-0.29;100.00;101412.84;6017939;23;20172;-70
2024/03/06 00:58:32;;;;;;;30.10;14.60;;;;;;;-0.33;100.00;101418.00;6018242;23;20168;-70
2024/03/06 01:00:59;;;;;;;28.20;14.33;;;;;;;-0.32;100.00;101419.56;6017693;23;20168;-71
2024/03/06 01:03:27;;;;;;;28.67;14.93;;;;;;;-0.34;100.00;101422.38;6017908;23;20191;-71
2024/03/06 01:05:54;;;;;;;30.37;16.17;;;;;;;-0.36;100.00;101419.25;6016692;23;20176;-71
2024/03/06 01:08:24;;;;;;;27.83;15.57;;;;;;;-0.38;100.00;101421.25;5983555;23;20187;-70
2024/03/06 01:10:53;;;;;;;32.23;15.27;;;;;;;-0.38;100.00;101423.84;6017982;23;20247;-71
2024/03/06 01:13:20;;;;;;;26.90;15.20;;;;;;;-0.43;100.00;101432.34;6018049;23;20195;-71
2024/03/06 01:15:46;;;;;;;30.77;15.83;;;;;;;-0.48;100.00;101431.47;6017938;23;20642;-71
2024/03/06 01:18:13;;;;;;;30.93;15.97;;;;;;;-0.53;100.00;101423.59;6018335;23;20170;-71
2024/03/06 01:20:40;;;;;;;32.83;16.03;;;;;;;-0.53;100.00;101431.38;6017946;23;20168;-71
2024/03/06 01:23:07;;;;;;;31.57;15.07;;;;;;;-0.57;100.00;101432.06;6017959;23;20262;-70
2024/03/06 01:25:34;;;;;;;35.23;15.67;;;;;;;-0.59;100.00;101434.88;6017962;23;20642;-71
2024/03/06 01:28:01;;;;;;;28.13;15.40;;;;;;;-0.60;100.00;101443.69;6017809;23;20172;-71
2024/03/06 01:30:27;;;;;;;32.50;16.27;;;;;;;-0.62;100.00;101446.50;6017991;23;20168;-71
2024/03/06 01:32:53;;;;;;;29.80;15.33;;;;;;;-0.66;100.00;101447.22;6017963;23;20203;-71
2024/03/06 01:35:20;;;;;;;34.20;16.13;;;;;;;-0.69;100.00;101445.06;6018616;23;20172;-71
2024/03/06 01:37:46;;;;;;;33.17;17.10;;;;;;;-0.71;100.00;101447.13;6018168;23;20171;-71
2024/03/06 01:40:13;;;;;;;27.30;14.33;;;;;;;-0.72;100.00;101455.91;6017873;23;20168;-71
2024/03/06 01:42:40;;;;;;;29.30;15.90;;;;;;;-0.74;100.00;101451.97;6017554;23;20167;-71
2024/03/06 01:45:08;;;;;;;33.53;14.73;;;;;;;-0.75;100.00;101456.38;6017362;23;20180;-71
2024/03/06 01:47:35;;;;;;;27.80;14.53;;;;;;;-0.74;100.00;101457.16;6017624;23;20172;-71
2024/03/06 01:50:02;;;;;;;29.17;14.90;;;;;;;-0.74;100.00;101464.94;6007969;23;20214;-71
2024/03/06 01:52:29;;;;;;;33.00;15.77;;;;;;;-0.78;100.00;101458.63;6017414;23;20247;-71
2024/03/06 01:54:56;;;;;;;29.57;15.60;;;;;;;-0.81;100.00;101463.25;6017581;23;20199;-71
2024/03/06 01:57:25;;;;;;;28.17;15.03;;;;;;;-0.80;100.00;101466.63;6017833;23;20176;-71
2024/03/06 01:59:53;;;;;;;24.53;14.07;;;;;;;-0.85;100.00;101463.94;6017557;23;20176;-71
2024/03/06 02:02:19;;;;;;;36.23;17.17;;;;;;;-0.90;100.00;101463.06;6017691;23;20202;-71
2024/03/06 02:04:46;;;;;;;33.87;15.77;;;;;;;-0.89;100.00;101456.84;6017785;23;20199;-71
2024/03/06 02:07:16;;;;;;;29.73;15.57;;;;;;;-0.92;100.00;101469.25;6018111;23;20172;-71
2024/03/06 02:09:43;;;;;;;28.50;14.97;;;;;;;-0.91;100.00;101464.84;5983656;23;20173;-71
2024/03/06 02:12:13;;;;;;;30.67;15.33;;;;;;;-0.97;100.00;101463.19;6017874;23;20168;-71
2024/03/06 02:14:40;;;;;;;35.53;17.13;;;;;;;-0.99;100.00;101469.59;6017650;23;20207;-71
2024/03/06 02:17:08;;;;;;;29.87;15.93;;;;;;;-1.02;100.00;101462.28;6008233;23;20180;-71
2024/03/06 02:19:39;;;;;;;34.50;16.70;;;;;;;-1.00;100.00;101462.84;6018085;23;20172;-71
2024/03/06 02:22:07;;;;;;;28.73;15.43;;;;;;;-0.99;100.00;101462.59;6017571;23;20175;-71
2024/03/06 02:24:33;;;;;;;33.47;16.87;;;;;;;-0.97;100.00;101463.19;6017542;23;20191;-71
2024/03/06 02:27:00;;;;;;;28.80;16.33;;;;;;;-0.98;100.00;101461.59;6018554;23;20243;-71
2024/03/06 02:29:26;;;;;;;33.33;16.70;;;;;;;-0.97;100.00;101458.00;6019284;23;20176;-71
2024/03/06 02:31:53;;;;;;;35.10;17.90;;;;;;;-1.00;100.00;101455.84;6019757;23;20177;-71
2024/03/06 02:34:19;;;;;;;29.80;15.80;;;;;;;-1.05;100.00;101467.94;6019098;23;20727;-71
2024/03/06 02:36:45;;;;;;;29.73;16.77;;;;;;;-1.09;100.00;101469.38;6019717;23;20238;-71
2024/03/06 02:39:14;;;;;;;30.13;16.07;;;;;;;-1.13;100.00;101462.06;6019906;23;20172;-71
2024/03/06 02:41:40;;;;;;;34.53;16.37;;;;;;;-1.10;100.00;101470.41;6019306;23;20180;-71
2024/03/06 02:44:07;;;;;;;34.77;16.20;;;;;;;-1.14;100.00;101467.47;6018857;23;20188;-71
2024/03/06 02:46:33;;;;;;;36.17;16.50;;;;;;;-1.15;100.00;101468.47;6019476;23;20172;-71
2024/03/06 02:49:02;;;;;;;30.67;16.33;;;;;;;-1.14;100.00;101472.63;6010242;23;20194;-71
2024/03/06 02:51:28;;;;;;;28.07;16.13;;;;;;;-1.17;100.00;101471.28;6019429;23;20179;-71
2024/03/06 02:53:56;;;;;;;29.60;15.93;;;;;;;-1.18;100.00;101470.75;6019140;23;20188;-70
2024/03/06 02:56:24;;;;;;;35.20;17.20;;;;;;;-1.24;100.00;101462.09;6019385;23;20174;-71
2024/03/06 02:58:50;;;;;;;37.73;17.90;;;;;;;-1.25;100.00;101467.50;6019157;23;20636;-71
2024/03/06 03:01:17;;;;;;;32.40;16.30;;;;;;;-1.29;100.00;101467.16;6019120;23;20168;-71
2024/03/06 03:03:44;;;;;;;33.47;17.63;;;;;;;-1.27;100.00;101464.31;6018724;23;20180;-71
2024/03/06 03:06:10;;;;;;;38.23;18.23;;;;;;;-1.25;100.00;101467.50;6018524;23;20179;-71
2024/03/06 03:08:37;;;;;;;33.50;17.63;;;;;;;-1.28;100.00;101467.94;6018770;23;20488;-71
2024/03/06 03:11:04;;;;;;;27.13;15.87;;;;;;;-1.27;100.00;101478.06;6019491;23;20172;-71
2024/03/06 03:13:32;;;;;;;35.70;17.17;;;;;;;-1.30;100.00;101486.28;6018562;23;20668;-71
2024/03/06 03:15:58;;;;;;;37.73;18.27;;;;;;;-1.28;100.00;101486.88;6019186;23;20516;-71
2024/03/06 03:18:24;;;;;;;29.63;16.10;;;;;;;-1.24;100.00;101482.81;6018981;23;20577;-71
2024/03/06 03:20:51;;;;;;;32.10;16.70;;;;;;;-1.24;100.00;101482.81;6019298;23;20183;-71
2024/03/06 03:23:21;;;;;;;30.93;15.80;;;;;;;-1.23;100.00;101492.94;5984272;23;20192;-71
2024/03/06 03:25:48;;;;;;;33.30;17.30;;;;;;;-1.21;100.00;101489.34;6019068;23;20206;-71
2024/03/06 03:28:14;;;;;;;36.93;18.30;;;;;;;-1.21;100.00;101486.75;6019047;23;20176;-71
2024/03/06 03:30:43;;;;;;;37.40;18.10;;;;;;;-1.26;100.00;101490.00;6018805;23;20174;-71
2024/03/06 03:33:10;;;;;;;30.67;16.23;;;;;;;-1.25;100.00;101488.22;6018921;23;20192;-71
2024/03/06 03:35:36;;;;;;;39.70;18.80;;;;;;;-1.31;100.00;101489.13;6019012;23;20637;-71
2024/03/06 03:38:03;;;;;;;29.47;16.53;;;;;;;-1.29;100.00;101493.06;6019230;23;20168;-71
2024/03/06 03:40:30;;;;;;;30.03;16.40;;;;;;;-1.28;100.00;101493.84;6019796;23;20168;-71
2024/03/06 03:42:56;;;;;;;30.83;17.60;;;;;;;-1.28;100.00;101492.03;6019442;23;20188;-71
2024/03/06 03:45:22;;;;;;;30.90;16.60;;;;;;;-1.24;100.00;101485.41;5984321;23;20187;-71
2024/03/06 03:47:50;;;;;;;34.90;16.90;;;;;;;-1.24;100.00;101488.00;6018936;23;20499;-71
2024/03/06 03:50:16;;;;;;;33.97;17.20;;;;;;;-1.27;100.00;101492.81;6018559;23;20180;-71
2024/03/06 03:52:43;;;;;;;32.30;17.00;;;;;;;-1.27;100.00;101496.19;6018838;23;20187;-71
2024/03/06 03:55:10;;;;;;;35.77;17.50;;;;;;;-1.27;100.00;101487.63;6019185;23;20207;-71
2024/03/06 03:57:37;;;;;;;38.37;16.93;;;;;;;-1.28;100.00;101493.84;6018885;23;20179;-70
2024/03/06 04:00:10;;;;;;;37.37;18.30;;;;;;;-1.31;100.00;101495.06;6019035;23;20203;-71
2024/03/06 04:02:38;;;;;;;34.17;17.80;;;;;;;-1.27;100.00;101500.59;6009167;23;20633;-71
2024/03/06 04:05:07;;;;;;;39.10;17.23;;;;;;;-1.28;100.00;101492.03;6018399;23;20164;-71
2024/03/06 04:07:34;;;;;;;40.40;18.57;;;;;;;-1.29;100.00;101490.47;6018716;23;20179;-71
2024/03/06 04:10:00;;;;;;;32.03;17.00;;;;;;;-1.29;100.00;101495.66;6018639;23;20195;-71
2024/03/06 04:12:26;;;;;;;36.23;18.53;;;;;;;-1.31;100.00;101499.47;6018977;23;20176;-71
2024/03/06 04:14:53;;;;;;;38.37;17.57;;;;;;;-1.32;100.00;101501.28;6018348;23;20192;-71
2024/03/06 04:17:19;;;;;;;44.03;18.93;;;;;;;-1.33;100.00;101502.28;6018449;23;20255;-71
2024/03/06 04:19:48;;;;;;;38.03;17.67;;;;;;;-1.33;100.00;101507.47;6018434;23;20172;-71
2024/03/06 04:22:15;;;;;;;38.90;18.27;;;;;;;-1.34;100.00;101516.25;6018918;23;20172;-71
2024/03/06 04:24:42;;;;;;;36.17;17.43;;;;;;;-1.35;100.00;101512.06;6018440;23;20199;-71
2024/03/06 04:27:11;;;;;;;37.53;18.10;;;;;;;-1.35;100.00;101511.28;6019047;23;20164;-71
2024/03/06 04:29:37;;;;;;;37.83;18.30;;;;;;;-1.37;100.00;101521.88;6019053;23;20569;-71
2024/03/06 04:32:07;;;;;;;38.33;18.23;;;;;;;-1.41;100.00;101520.75;6018732;23;20168;-71
2024/03/06 04:34:33;;;;;;;38.37;18.50;;;;;;;-1.47;100.00;101508.69;6018436;23;20198;-71
2024/03/06 04:37:00;;;;;;;37.70;19.17;;;;;;;-1.48;100.00;101509.72;5984056;23;20172;-71
2024/03/06 04:39:27;;;;;;;34.77;18.47;;;;;;;-1.45;100.00;101508.47;6018197;23;20257;-71
2024/03/06 04:41:54;;;;;;;40.83;19.20;;;;;;;-1.49;100.00;101526.25;6018684;23;20175;-71
2024/03/06 04:44:20;;;;;;;40.90;19.50;;;;;;;-1.52;100.00;101521.53;6018242;23;20188;-71
2024/03/06 04:46:46;;;;;;;42.63;18.90;;;;;;;-1.50;100.00;101523.88;6018230;23;20164;-71
2024/03/06 04:49:13;;;;;;;36.00;18.83;;;;;;;-1.51;100.00;101523.09;6018017;23;20184;-71
2024/03/06 04:51:39;;;;;;;38.07;19.40;;;;;;;-1.54;100.00;101530.53;6018252;23;20179;-71
2024/03/06 04:54:05;;;;;;;42.27;18.97;;;;;;;-1.51;100.00;101535.25;6017956;23;20196;-71
2024/03/06 04:56:34;;;;;;;38.90;18.00;;;;;;;-1.53;100.00;101532.09;6018315;23;20174;-71
2024/03/06 04:59:03;;;;;;;41.90;19.10;;;;;;;-1.54;100.00;101539.09;6018641;23;20309;-71
2024/03/06 05:01:38;;;;;;;47.90;20.93;;;;;;;-1.53;100.00;101542.44;6017816;23;20168;-71
2024/03/06 05:04:04;;;;;;;46.77;21.30;;;;;;;-1.52;100.00;101538.88;6018182;23;20529;-71
2024/03/06 05:06:31;;;;;;;42.20;20.40;;;;;;;-1.48;100.00;101546.72;6018347;23;20253;-71
2024/03/06 05:08:57;;;;;;;47.13;22.13;;;;;;;-1.43;100.00;101550.47;6018352;23;20168;-71
2024/03/06 05:11:23;;;;;;;47.57;21.73;;;;;;;-1.37;100.00;101547.78;6018300;23;20175;-71
2024/03/06 05:13:51;;;;;;;50.63;22.33;;;;;;;-1.33;100.00;101550.72;6018305;23;20195;-71
2024/03/06 05:16:17;;;;;;;46.30;22.63;;;;;;;-1.30;100.00;101560.63;6018072;23;20179;-71
2024/03/06 05:18:44;;;;;;;45.67;22.03;;;;;;;-1.27;100.00;101562.75;6017850;23;20228;-71
2024/03/06 05:21:11;;;;;;;45.33;22.37;;;;;;;-1.24;100.00;101565.72;6017623;23;20171;-71
2024/03/06 05:23:38;;;;;;;54.00;22.97;;;;;;;-1.22;100.00;101568.88;6017812;23;20191;-71
2024/03/06 05:26:04;;;;;;;49.63;23.37;;;;;;;-1.18;100.00;101580.38;6017527;23;20168;-71
2024/03/06 05:28:31;;;;;;;46.43;23.57;;;;;;;-1.13;100.00;101576.06;6017546;23;20174;-72
2024/03/06 05:31:00;;;;;;;46.20;22.03;;;;;;;-1.08;100.00;101581.38;6017462;23;20166;-71
2024/03/06 05:33:36;;;;;;;47.57;21.43;;;;;;;-1.02;100.00;101588.25;6017416;23;20586;-71
2024/03/06 05:36:02;;;;;;;49.17;22.73;;;;;;;-0.97;100.00;101592.78;6017106;23;20182;-71
2024/03/06 05:38:28;;;;;;;42.17;22.40;;;;;;;-0.93;100.00;101594.69;6017422;23;20207;-72
2024/03/06 05:40:55;;;;;;;43.27;21.33;;;;;;;-0.90;100.00;101597.84;6017233;23;20194;-72
2024/03/06 05:43:21;;;;;;;50.87;25.13;;;;;;;-0.86;100.00;101592.00;6016751;23;20219;-71
2024/03/06 05:45:47;;;;;;;50.73;23.63;;;;;;;-0.83;100.00;101591.53;6017268;23;20170;-71
2024/03/06 05:48:15;;;;;;;41.37;22.23;;;;;;;-0.77;100.00;101602.81;6017503;23;20168;-72
2024/03/06 05:50:41;;;;;;;51.93;25.93;;;;;;;-0.74;100.00;101608.31;6017257;23;20186;-72
2024/03/06 05:53:08;;;;;;;59.73;26.13;;;;;;;-0.70;100.00;101617.22;6016958;23;20654;-72
2024/03/06 05:55:34;;;;;;;54.57;26.03;;;;;;;-0.65;100.00;101614.75;5982699;23;20188;-72
2024/03/06 05:58:00;;;;;;;53.57;24.70;;;;;;;-0.63;100.00;101623.09;6017171;23;20175;-72
2024/03/06 06:00:27;;;;;;;60.53;25.87;;;;;;;-0.60;100.00;101618.22;6016792;23;20493;-72
2024/03/06 06:02:53;;;;;;;56.83;25.23;;;;;;;-0.54;100.00;101626.91;5983463;23;20180;-72
2024/03/06 06:05:22;;;;;;;55.90;26.27;;;;;;;-0.50;100.00;101622.88;6018955;23;20174;-72
2024/03/06 06:07:49;;;;;;;66.80;28.50;;;;;;;-0.46;100.00;101626.59;6019340;23;20224;-72
2024/03/06 06:10:15;;;;;;;57.10;26.50;;;;;;;-0.40;100.00;101625.69;6018725;23;20172;-72
2024/03/06 06:12:42;;;;;;;63.63;26.73;;;;;;;-0.36;100.00;101629.41;6018496;23;20622;-72
2024/03/06 06:15:09;;;;;;;64.27;26.50;;;;;;;-0.31;100.00;101638.06;6019495;23;20637;-72
2024/03/06 06:17:37;;;;;;;65.23;26.37;;;;;;;-0.25;100.00;101639.75;6019153;23;20168;-72
2024/03/06 06:20:05;;;;;;;65.90;27.57;;;;;;;-0.19;100.00;101646.63;6018853;23;20681;-72
2024/03/06 06:22:32;;;;;;;66.00;27.43;;;;;;;-0.13;100.00;101650.91;6018610;23;20542;-72
2024/03/06 06:24:58;;;;;;;69.30;29.73;;;;;;;-0.08;100.00;101648.41;6018470;23;20672;-72
2024/03/06 06:27:25;;;;;;;63.33;27.93;;;;;;;-0.02;100.00;101657.09;6018402;23;20172;-72
2024/03/06 06:29:53;;;;;;;88.00;30.37;;;;;;;0.03;100.00;101655.38;6018985;23;20172;-72
2024/03/06 06:32:19;;;;;;;103.93;30.83;;;;;;;0.10;100.00;101657.84;6018757;23;20248;-72
2024/03/06 06:34:46;;;;;;;69.73;27.03;;;;;;;0.15;100.00;101660.53;6018579;23;20649;-72
2024/03/06 06:37:14;;;;;;;94.97;27.03;;;;;;;0.21;100.00;101664.81;6018877;23;20176;-72
2024/03/06 06:39:42;;;;;;;95.57;28.00;;;;;;;0.26;100.00;101662.31;6019053;23;20603;-72
2024/03/06 06:42:08;;;;;;;68.37;27.47;;;;;;;0.32;100.00;101661.41;6018064;23;20194;-72
2024/03/06 06:44:35;;;;;;;102.47;28.77;;;;;;;0.37;100.00;101661.50;6018060;23;20673;-72
2024/03/06 06:47:01;;;;;;;101.17;27.90;;;;;;;0.41;100.00;101660.78;6017492;23;20172;-72
2024/03/06 06:49:29;;;;;;;102.47;27.33;;;;;;;0.47;100.00;101661.69;6018646;23;20203;-72
2024/03/06 06:51:56;;;;;;;73.03;26.50;;;;;;;0.54;100.00;101670.13;6018452;23;20178;-72
2024/03/06 06:54:22;;;;;;;107.27;27.33;;;;;;;0.59;100.00;101678.00;6018586;23;20271;-71
2024/03/06 06:56:50;;;;;;;87.57;26.83;;;;;;;0.63;100.00;101673.91;6018420;23;20180;-71
2024/03/06 06:59:17;;;;;;;88.30;26.40;;;;;;;0.69;100.00;101675.59;6018674;23;20168;-71
2024/03/06 07:01:43;;;;;;;76.07;27.33;;;;;;;0.74;100.00;101679.03;6016498;23;20603;-72
2024/03/06 07:04:09;;;;;;;72.37;24.73;;;;;;;0.80;100.00;101685.13;6016393;23;20188;-72
2024/03/06 07:06:36;;;;;;;66.87;25.60;;;;;;;0.84;100.00;101681.06;6018039;23;20510;-72
2024/03/06 07:09:04;;;;;;;142.13;26.37;;;;;;;0.88;100.00;101682.94;6018171;23;20630;-72
2024/03/06 07:11:31;;;;;;;77.37;24.63;;;;;;;0.92;100.00;101693.66;6018336;23;20271;-72
2024/03/06 07:13:58;;;;;;;56.97;25.60;;;;;;;0.96;100.00;101695.56;5983689;23;20278;-72
2024/03/06 07:16:25;;;;;;;68.77;23.87;;;;;;;1.01;100.00;101695.66;6018100;23;20179;-72
2024/03/06 07:18:51;;;;;;;82.10;23.33;;;;;;;1.07;100.00;101696.50;6018180;23;20200;-72
2024/03/06 07:21:18;;;;;;;77.67;24.63;;;;;;;1.13;100.00;101698.97;6017319;23;20168;-72
2024/03/06 07:23:44;;;;;;;87.23;25.67;;;;;;;1.18;100.00;101695.63;5982635;23;20244;-72
2024/03/06 07:26:11;;;;;;;49.77;22.77;;;;;;;1.21;100.00;101697.78;6017543;23;20175;-72
2024/03/06 07:28:38;;;;;;;92.67;24.43;;;;;;;1.25;100.00;101691.84;6017301;23;20168;-72
2024/03/06 07:31:06;;;;;;;81.10;24.27;;;;;;;1.28;100.00;101696.59;6017514;23;20175;-72
2024/03/06 07:33:33;;;;;;;91.10;25.97;;;;;;;1.31;100.00;101706.50;6017885;23;20192;-71
2024/03/06 07:36:03;;;;;;;80.03;25.63;;;;;;;1.33;100.00;101699.28;6017804;23;20184;-71
2024/03/06 07:38:32;;;;;;;56.10;25.07;;;;;;;1.37;100.00;101707.41;6018004;23;20174;-71
2024/03/06 07:40:58;;;;;;;61.67;23.03;;;;;;;1.40;100.00;101699.13;6018009;23;20168;-71
2024/03/06 07:43:24;;;;;;;56.03;24.30;;;;;;;1.44;100.00;101701.00;6016313;23;20209;-71
2024/03/06 07:45:51;;;;;;;50.10;25.10;;;;;;;1.50;100.00;101704.50;6017769;23;20637;-71
2024/03/06 07:48:19;;;;;;;56.67;25.13;;;;;;;1.55;100.00;101701.94;6017946;23;20164;-71
2024/03/06 07:50:46;;;;;;;57.07;25.93;;;;;;;1.58;100.00;101707.47;6017873;23;20944;-71
2024/03/06 07:53:12;;;;;;;58.40;25.87;;;;;;;1.65;100.00;101707.28;6017358;23;20216;-71
2024/03/06 07:55:39;;;;;;;53.17;24.33;;;;;;;1.70;100.00;101718.56;6017255;23;20268;-71
2024/03/06 07:58:05;;;;;;;55.80;26.70;;;;;;;1.77;100.00;101718.41;6017467;23;20164;-71
2024/03/06 08:00:32;;;;;;;63.50;28.17;;;;;;;1.83;100.00;101727.88;6016903;23;20176;-71
2024/03/06 08:03:00;;;;;;;54.33;28.23;;;;;;;1.84;100.00;101725.03;6016921;23;20276;-71
2024/03/06 08:05:28;;;;;;;69.07;26.67;;;;;;;1.91;100.00;101733.44;6017877;23;20654;-71
2024/03/06 08:07:55;;;;;;;64.40;27.03;;;;;;;1.96;100.00;101724.91;6017473;23;20175;-71
2024/03/06 08:10:23;;;;;;;54.43;26.17;;;;;;;2.02;100.00;101729.94;6017130;23;20172;-71
2024/03/06 08:12:49;;;;;;;59.37;26.40;;;;;;;2.08;100.00;101728.19;6016960;23;20181;-71
2024/03/06 08:15:16;;;;;;;66.40;27.10;;;;;;;2.16;100.00;101725.16;5982670;23;20203;-71
2024/03/06 08:17:43;;;;;;;59.33;25.97;;;;;;;2.23;100.00;101733.59;6016254;23;20872;-71
2024/03/06 08:20:11;;;;;;;62.63;28.17;;;;;;;2.27;100.00;101732.88;5982526;23;20183;-71
2024/03/06 08:22:41;;;;;;;55.37;25.87;;;;;;;2.34;100.00;101738.69;6016881;23;20175;-71
2024/03/06 08:25:08;;;;;;;64.63;28.77;;;;;;;2.42;100.00;101746.09;6016469;23;20168;-71
2024/03/06 08:27:35;;;;;;;55.37;27.33;;;;;;;2.47;100.00;101753.97;6016312;23;20175;-71
2024/03/06 08:30:04;;;;;;;53.83;27.27;;;;;;;2.52;100.00;101751.41;5982269;23;20518;-71
2024/03/06 08:32:31;;;;;;;56.83;27.20;;;;;;;2.60;100.00;101745.00;5982761;23;20540;-71
2024/03/06 08:34:57;;;;;;;60.57;27.57;;;;;;;2.63;100.00;101755.72;6017226;23;20220;-71
2024/03/06 08:37:24;;;;;;;54.90;27.43;;;;;;;2.69;100.00;101754.72;6017753;23;20195;-71
2024/03/06 08:39:51;;;;;;;55.43;27.43;;;;;;;2.74;100.00;101756.59;6017676;23;20176;-71
2024/03/06 08:42:18;;;;;;;50.20;25.63;;;;;;;2.82;100.00;101751.75;6016965;23;20635;-71
2024/03/06 08:44:45;;;;;;;47.80;24.40;;;;;;;2.89;100.00;101751.53;5981356;23;20188;-71
2024/03/06 08:47:13;;;;;;;54.33;26.70;;;;;;;2.96;100.00;101759.97;6016349;23;20251;-71
2024/03/06 08:49:39;;;;;;;46.33;24.00;;;;;;;3.00;100.00;101763.66;6016155;23;20201;-71
2024/03/06 08:52:08;;;;;;;43.20;22.43;;;;;;;3.02;100.00;101756.38;6016275;23;20622;-71
2024/03/06 08:54:34;;;;;;;39.33;20.83;;;;;;;3.03;100.00;101771.00;6016283;23;20243;-71
2024/03/06 08:57:02;;;;;;;41.53;21.93;;;;;;;3.06;100.00;101773.13;6016206;23;20531;-71
2024/03/06 08:59:29;;;;;;;41.07;22.17;;;;;;;3.09;100.00;101781.22;5981763;23;20172;-71
2024/03/06 09:01:56;;;;;;;43.57;22.97;;;;;;;3.11;100.00;101789.59;6015886;23;20172;-71
2024/03/06 09:04:23;;;;;;;39.27;20.93;;;;;;;3.13;100.00;101782.31;6015854;23;20188;-71
2024/03/06 09:06:49;;;;;;;38.27;20.17;;;;;;;3.19;100.00;101788.38;6015695;23;20169;-71
2024/03/06 09:09:16;;;;;;;40.53;21.33;;;;;;;3.20;100.00;101793.34;6016289;23;20172;-71
2024/03/06 09:11:42;;;;;;;38.23;20.33;;;;;;;3.24;100.00;101791.03;6015745;23;20172;-71
2024/03/06 09:14:10;;;;;;;41.37;22.03;;;;;;;3.29;100.00;101788.47;6015364;23;20191;-71
2024/03/06 09:16:36;;;;;;;37.53;20.77;;;;;;;3.30;100.00;101801.28;6015274;23;20192;-71
2024/03/06 09:19:03;;;;;;;34.60;18.47;;;;;;;3.37;100.00;101791.41;5981617;23;20173;-71
2024/03/06 09:21:29;;;;;;;35.30;18.50;;;;;;;3.44;100.00;101799.84;6015416;23;20174;-71
2024/03/06 09:23:56;;;;;;;33.73;18.77;;;;;;;3.47;100.00;101809.00;6014604;23;20630;-71
2024/03/06 09:26:22;;;;;;;31.47;18.70;;;;;;;3.53;100.00;101805.38;6015263;23;20198;-71
2024/03/06 09:28:49;;;;;;;32.53;17.27;;;;;;;3.58;100.00;101813.25;6015344;23;20181;-71
2024/03/06 09:31:17;;;;;;;30.80;16.73;;;;;;;3.60;100.00;101813.78;6015380;23;20190;-71
2024/03/06 09:33:43;;;;;;;29.70;17.40;;;;;;;3.59;100.00;101815.63;6012868;23;20650;-71
2024/03/06 09:36:13;;;;;;;28.73;15.40;;;;;;;3.61;100.00;101825.81;6015990;23;20526;-71
2024/03/06 09:38:40;;;;;;;28.50;15.87;;;;;;;3.60;100.00;101822.44;6016492;23;20173;-71
2024/03/06 09:41:06;;;;;;;26.47;16.33;;;;;;;3.60;100.00;101827.66;6017668;23;20223;-71
2024/03/06 09:43:33;;;;;;;25.40;15.57;;;;;;;3.64;100.00;101827.94;6016386;23;20194;-71
2024/03/06 09:46:02;;;;;;;27.43;16.47;;;;;;;3.67;100.00;101828.22;6016732;23;20168;-71
2024/03/06 09:48:30;;;;;;;25.70;15.87;;;;;;;3.70;100.00;101832.16;6017331;23;20177;-71
2024/03/06 09:51:01;;;;;;;25.77;16.03;;;;;;;3.74;100.00;101820.19;6017222;23;20825;-71
2024/03/06 09:53:28;;;;;;;25.67;15.10;;;;;;;3.75;100.00;101827.78;6017031;23;20198;-71
2024/03/06 09:55:59;;;;;;;24.67;15.60;;;;;;;3.71;100.00;101837.13;6016490;23;20222;-71
2024/03/06 09:58:25;;;;;;;25.70;15.87;;;;;;;3.78;100.00;101822.03;6016533;23;20234;-71
2024/03/06 10:00:53;;;;;;;25.27;15.33;;;;;;;3.81;100.00;101832.00;6017284;23;20182;-71
2024/03/06 10:03:20;;;;;;;27.40;15.80;;;;;;;3.84;100.00;101826.25;6016452;23;20199;-72
2024/03/06 10:05:48;;;;;;;32.27;15.97;;;;;;;3.87;100.00;101825.75;6016540;23;20176;-71
2024/03/06 10:08:16;;;;;;;29.00;17.10;;;;;;;3.92;100.00;101827.63;6016997;23;20183;-71
2024/03/06 10:10:42;;;;;;;27.37;16.57;;;;;;;4.00;100.00;101827.16;6016497;23;20168;-71
2024/03/06 10:13:09;;;;;;;29.07;17.03;;;;;;;4.08;100.00;101832.69;6016789;23;20198;-71
2024/03/06 10:15:36;;;;;;;28.87;16.80;;;;;;;4.16;100.00;101828.81;5981605;23;20665;-71
2024/03/06 10:18:13;;;;;;;31.53;17.47;;;;;;;4.26;100.00;101829.66;6016173;23;20179;-71
2024/03/06 10:20:42;;;;;;;26.87;16.67;;;;;;;4.38;100.00;101832.09;6016315;23;20171;-71
2024/03/06 10:23:10;;;;;;;28.17;15.90;;;;;;;4.49;100.00;101837.13;6016055;23;20188;-71
2024/03/06 10:25:37;;;;;;;27.20;15.23;;;;;;;4.59;100.00;101839.00;6016258;23;20247;-71
2024/03/06 10:28:08;;;;;;;24.53;15.73;;;;;;;4.66;100.00;101827.25;6016245;23;20766;-71
2024/03/06 10:30:36;;;;;;;25.67;15.83;;;;;;;4.79;100.00;101832.03;6016559;23;20176;-71
2024/03/06 10:33:04;;;;;;;24.80;14.97;;;;;;;4.87;100.00;101833.34;6015919;23;20226;-71
2024/03/06 10:35:30;;;;;;;22.80;14.07;;;;;;;4.93;100.00;101840.19;6015354;23;20192;-71
2024/03/06 10:37:57;;;;;;;21.87;14.10;;;;;;;5.04;100.00;101832.09;6015644;23;20176;-71
2024/03/06 10:40:29;;;;;;;21.80;14.47;;;;;;;5.15;100.00;101841.56;6015241;23;20172;-71
2024/03/06 10:42:56;;;;;;;20.03;13.47;;;;;;;5.28;100.00;101837.66;6015715;23;21478;-71
2024/03/06 10:45:29;;;;;;;24.87;14.70;;;;;;;5.39;100.00;101842.63;6006338;23;20175;-71
2024/03/06 10:47:56;;;;;;;22.57;14.40;;;;;;;5.49;100.00;101840.03;6015701;23;20640;-71
2024/03/06 10:50:22;;;;;;;21.73;14.27;;;;;;;5.50;100.00;101841.59;6015538;23;20417;-71
2024/03/06 10:52:50;;;;;;;22.47;13.73;;;;;;;5.57;100.00;101841.34;6014935;23;20509;-71
2024/03/06 10:55:16;;;;;;;25.13;15.00;;;;;;;5.60;100.00;101840.81;6015036;23;20180;-71
2024/03/06 10:57:46;;;;;;;21.93;14.03;;;;;;;5.62;100.00;101844.75;6015436;23;20178;-71
2024/03/06 11:00:18;;;;;;;24.20;15.67;;;;;;;5.65;100.00;101836.34;6016150;23;20234;-71
2024/03/06 11:02:48;;;;;;;23.23;14.73;;;;;;;5.63;100.00;101846.31;6014709;23;20175;-71
2024/03/06 11:05:15;;;;;;;21.57;14.63;;;;;;;5.63;100.00;101838.47;6013280;23;20205;-71